Terminal Aerodrome Forecast
Issued by NWS

Home | Current Version | Previous Version | Text Only | Print | Product List | Glossary On
Versions: 1 2 3 4 5 6 7 8 9 10 11 12 13 14 15 16 17 18 19 20 21
000
FTUS41 KBOX 312320
TAFFMH
TAF
KFMH 312320Z 0100/0124 06013KT P6SM OVC040
     FM010600 04013G21KT P6SM -SHRA OVC025
     FM011400 03021G30KT 3SM -RA BR OVC008
     FM011800 04024G34KT 3SM +RA BR OVC003
     FM012200 02028G42KT 3SM RA BR OVC008=

USA.gov is the U.S. government's official web portal to all federal, state and local government web resources and services.